Aeroporto :
LOGIN :

Iscrizione | Disclaimer

   EN    FR    IT 

 










Sommario :    VFR   VFR Marginale   IFR   IFR Intensivo   IFR Molto Intensivo
Visibilità : 
Base nubi : 
>= 8 km
>= 3000ft
5 / 8 km
1000 / 3000 ft
1500m / 5 km
500 / 1000 ft
800 / 1500m
200 / 500 ft
< 800m
< 200 ft
Simboli :   Temporali  Nebbia  Neve Forte  Precipitazioni Forti  Vento > 20 kt
SIGMETs :   Varie  Temporali  Ghiacco  Turbolenza  Onda orograficha  Ceneri Vulcaniche






- Altitudine del aeroporto : 308 ft
- Codice IATA : MHG


EDFM - Mannheim-City

ULTIMO METAR :
  • 120520Z 18008KT 150V210 9999 FEW033 BKN038 06/03 Q1007

METARs OBSOLETI :
  • 120450Z 18007KT 150V210 9999 FEW034 OVC039 06/04 Q1007
  • 120420Z 19006KT 150V220 9999 OVC043 06/04 Q1008

TAF TAF EDFM
Valido dal 12 a 06 ore il 12 a 15 ore UTC


120500Z 1206/1215 18007KT 9999 BKN035
PROB30
TEMPO 1213/1215 21015G25KT SHRA BKN020CB



MetMap, La meteo Aeronautica in un colpo d'occhio ! - Copyright ORBIFLY Dicembre 2007 - Disclaimer

ORBIFLY MET'MAP TEAM :

Programmazione e sviluppo : Alexandra Zaïnal
Concezione e sviluppo : Baudouin d'Aumeries
Co-Programmazione e sviluppo : Marc-Olivier Méhu
Supporto tecnico e logistico : Manuel Goepfert
Aiuto per la traduzione : Arnaldo La Scala

Contatto : metmap@orbifly.com




FONTI E CREDITI :

   NOAA